Aviation Digital Data Service (ADDS)

Output produced by METARs form (2208 UTC 01 December 2021)
found at http://aviationweather.gov/metar/data/
 
KLCH 011728Z 0118/0218 22006KT P6SM FEW250 
     FM020600 25001KT 4SM BR SKC 
     FM020800 00000KT 1/2SM FG BKN004 
     FM021400 22002KT 3SM BR SCT100 
     FM021600 22005KT P6SM SKC